Time;durP1;ratioP1;P1;durP2;ratioP2;P2;SDS_P1;SDS_P2;PMS_P1;PMS_P2;Temp;Humidity;BMP_temperature;BMP_pressure;BME280_temperature;BME280_humidity;BME280_pressure;Samples;Min_cycle;Max_cycle;Signal;HPM_P1;HPM_P2
2023/11/06 00:01:57;;;;;;;;;1.00;1.00;;;;;11.42;67.87;99476.88;5079286;28;50287;-62
2023/11/06 00:04:22;;;;;;;;;2.50;0.25;;;;;11.41;68.24;99481.28;5076276;28;73290;-62
2023/11/06 00:06:48;;;;;;;;;4.00;2.00;;;;;11.39;68.55;99483.97;5076282;28;45384;-62
2023/11/06 00:09:14;;;;;;;;;0.50;0.00;;;;;11.39;68.30;99475.28;5057343;28;75424;-62
2023/11/06 00:11:40;;;;;;;;;6.00;1.00;;;;;11.38;68.09;99477.06;5079653;28;47338;-62
2023/11/06 00:14:06;;;;;;;;;2.50;1.00;;;;;11.39;68.72;99488.38;5073489;28;46245;-63
2023/11/06 00:16:31;;;;;;;;;6.50;2.00;;;;;11.39;68.20;99497.06;5073596;28;45458;-62
2023/11/06 00:18:57;;;;;;;;;0.25;0.00;;;;;11.38;68.04;99492.78;5076143;28;71624;-62
2023/11/06 00:21:23;;;;;;;;;1.50;0.00;;;;;11.38;68.01;99494.53;5058076;28;47352;-62
2023/11/06 00:23:48;;;;;;;;;0.00;0.00;;;;;11.39;68.47;99488.38;5075867;28;45363;-62
2023/11/06 00:26:14;;;;;;;;;1.00;1.00;;;;;11.37;68.24;99482.38;5077583;28;45732;-62
2023/11/06 00:28:43;;;;;;;;;1.00;0.50;;;;;11.39;68.30;99497.06;5078204;28;45517;-62
2023/11/06 00:31:09;;;;;;;;;5.50;2.00;;;;;11.39;68.58;99489.22;5053863;28;46201;-63
2023/11/06 00:33:34;;;;;;;;;2.00;1.25;;;;;11.38;68.41;99487.53;5077136;28;45871;-62
2023/11/06 00:35:59;;;;;;;;;1.75;0.75;;;;;11.36;68.35;99484.13;5059708;28;45651;-62
2023/11/06 00:38:25;;;;;;;;;5.00;1.00;;;;;11.37;68.81;99495.47;5078637;28;45204;-62
2023/11/06 00:40:50;;;;;;;;;3.50;1.00;;;;;11.36;68.45;99483.28;5073637;28;72317;-62
2023/11/06 00:43:16;;;;;;;;;0.00;0.00;;;;;11.36;68.17;99493.75;5078633;28;72180;-62
2023/11/06 00:45:41;;;;;;;;;3.00;0.00;;;;;11.34;68.67;99493.84;5074363;28;45698;-62
2023/11/06 00:48:06;;;;;;;;;3.75;1.00;;;;;11.29;69.00;99490.59;5076343;28;46821;-62
2023/11/06 00:50:32;;;;;;;;;2.00;1.00;;;;;11.30;69.16;99502.78;5074524;28;45995;-62
2023/11/06 00:52:58;;;;;;;;;6.75;0.25;;;;;11.30;68.96;99494.09;5060153;28;45437;-62
2023/11/06 00:55:24;;;;;;;;;3.00;1.00;;;;;11.27;68.79;99489.00;5074146;28;45536;-62
2023/11/06 00:57:51;;;;;;;;;1.50;0.00;;;;;11.29;68.80;99489.75;5072870;28;45329;-62
2023/11/06 01:00:17;;;;;;;;;1.50;0.00;;;;;11.28;68.88;99498.53;5073073;28;46124;-62
2023/11/06 01:02:43;;;;;;;;;2.75;0.50;;;;;11.25;69.53;99496.91;5078476;28;45272;-62
2023/11/06 01:05:08;;;;;;;;;4.50;1.00;;;;;11.24;69.86;99500.44;5078005;28;67789;-62
2023/11/06 01:07:33;;;;;;;;;0.75;0.50;;;;;11.24;69.34;99504.84;5070846;28;50776;-62
2023/11/06 01:09:59;;;;;;;;;2.00;0.50;;;;;11.20;69.16;99499.75;5078320;28;62299;-62
2023/11/06 01:12:24;;;;;;;;;3.00;0.00;;;;;11.19;69.59;99500.69;5077282;28;45280;-62
2023/11/06 01:14:50;;;;;;;;;1.00;1.00;;;;;11.20;69.77;99493.69;5054997;28;67837;-62
2023/11/06 01:17:15;;;;;;;;;4.50;0.00;;;;;11.20;69.57;99491.06;5072436;28;45545;-62
2023/11/06 01:19:40;;;;;;;;;1.25;1.00;;;;;11.17;69.87;99497.31;5074384;28;74587;-62
2023/11/06 01:22:06;;;;;;;;;2.50;0.00;;;;;11.17;70.10;99501.69;5054723;28;45445;-62
2023/11/06 01:24:31;;;;;;;;;1.50;0.50;;;;;11.16;69.84;99500.84;5058317;28;67048;-62
2023/11/06 01:26:56;;;;;;;;;3.50;1.00;;;;;11.15;70.29;99507.00;5075701;28;72650;-62
2023/11/06 01:29:22;;;;;;;;;3.75;1.00;;;;;11.15;69.84;99508.78;5072992;28;75522;-62
2023/11/06 01:31:47;;;;;;;;;1.50;0.00;;;;;11.15;70.36;99514.00;5054286;28;45423;-62
2023/11/06 01:34:12;;;;;;;;;4.00;1.00;;;;;11.13;70.27;99521.09;5069170;28;45339;-62
2023/11/06 01:36:44;;;;;;;;;4.50;0.50;;;;;11.12;70.46;99522.88;5077879;28;45519;-62
2023/11/06 01:39:10;;;;;;;;;2.75;1.00;;;;;11.10;71.36;99516.00;5055754;28;48729;-62
2023/11/06 01:41:36;;;;;;;;;1.75;1.00;;;;;11.09;70.48;99520.41;5077923;28;46417;-62
2023/11/06 01:44:02;;;;;;;;;6.00;1.50;;;;;11.08;70.80;99507.38;5060524;28;45543;-62
2023/11/06 01:46:27;;;;;;;;;2.50;1.00;;;;;11.06;70.70;99530.16;5075839;28;45323;-62
2023/11/06 01:48:53;;;;;;;;;1.75;1.00;;;;;11.06;70.92;99519.69;5081645;28;45971;-62
2023/11/06 01:51:18;;;;;;;;;4.25;0.75;;;;;11.07;70.31;99534.50;5075405;28;62538;-62
2023/11/06 01:53:43;;;;;;;;;3.75;0.75;;;;;11.05;70.77;99533.69;5062467;28;66598;-62
2023/11/06 01:56:09;;;;;;;;;2.00;1.00;;;;;11.03;70.90;99531.19;5061669;28;45466;-62
2023/11/06 01:58:34;;;;;;;;;4.00;1.00;;;;;10.99;71.22;99535.69;5072852;28;74564;-62
2023/11/06 02:01:00;;;;;;;;;1.50;0.75;;;;;11.00;70.83;99534.78;5059080;28;71452;-62
2023/11/06 02:03:26;;;;;;;;;2.50;1.00;;;;;11.00;71.00;99533.94;5081005;28;45379;-62
2023/11/06 02:05:51;;;;;;;;;5.50;1.75;;;;;10.98;70.58;99533.16;5063413;28;45403;-62
2023/11/06 02:08:16;;;;;;;;;2.75;1.75;;;;;10.98;70.90;99536.63;5074952;28;68334;-62
2023/11/06 02:10:43;;;;;;;;;5.00;2.00;;;;;10.96;71.70;99545.44;5085240;27;60866;-62
2023/11/06 02:13:09;;;;;;;;;4.25;1.25;;;;;10.97;70.98;99544.53;5074058;28;45486;-62
2023/11/06 02:15:34;;;;;;;;;2.25;1.00;;;;;10.96;70.91;99550.69;5078494;28;45442;-62
2023/11/06 02:17:59;;;;;;;;;3.00;1.00;;;;;10.95;70.74;99547.22;5080796;28;72406;-62
2023/11/06 02:20:25;;;;;;;;;1.00;0.00;;;;;10.96;71.30;99542.84;5069411;28;73153;-62
2023/11/06 02:22:57;;;;;;;;;1.00;0.50;;;;;10.96;70.65;99546.31;5056866;28;62588;-61
2023/11/06 02:25:22;;;;;;;;;2.00;0.00;;;;;10.94;70.68;99545.56;5056730;28;45281;-62
2023/11/06 02:27:47;;;;;;;;;3.75;0.25;;;;;10.93;70.83;99543.84;5044576;28;67014;-61
2023/11/06 02:30:12;;;;;;;;;1.25;1.25;;;;;10.92;70.67;99543.91;5078364;28;74727;-62
2023/11/06 02:32:38;;;;;;;;;2.25;0.00;;;;;10.93;71.14;99546.47;5062051;28;66594;-62
2023/11/06 02:35:07;;;;;;;;;3.50;1.00;;;;;10.92;70.88;99547.38;5061676;28;72876;-62
2023/11/06 02:37:32;;;;;;;;;4.00;1.00;;;;;10.93;71.41;99550.84;5080022;28;47031;-61
2023/11/06 02:39:57;;;;;;;;;4.50;0.00;;;;;10.91;70.99;99550.94;5081033;28;45252;-61
2023/11/06 02:42:23;;;;;;;;;3.00;0.25;;;;;10.90;71.13;99562.31;5081689;28;45442;-62
2023/11/06 02:44:48;;;;;;;;;5.00;2.00;;;;;10.91;70.76;99560.56;5056993;28;45467;-62
2023/11/06 02:47:14;;;;;;;;;3.50;2.00;;;;;10.91;71.24;99564.00;5076991;28;46278;-62
2023/11/06 02:49:39;;;;;;;;;1.50;1.00;;;;;10.91;70.95;99568.41;5080787;28;45509;-62
2023/11/06 02:52:05;;;;;;;;;1.75;0.25;;;;;10.91;71.35;99569.25;5057827;28;67714;-62
2023/11/06 02:54:30;;;;;;;;;2.50;1.00;;;;;10.90;70.95;99578.00;5079963;28;64086;-62
2023/11/06 02:56:55;;;;;;;;;2.75;1.00;;;;;10.89;70.79;99565.84;5072480;28;76585;-61
2023/11/06 02:59:24;;;;;;;;;2.75;1.00;;;;;10.92;70.94;99584.00;5075534;28;72160;-61
2023/11/06 03:01:50;;;;;;;;;2.75;1.00;;;;;10.91;71.28;99571.88;5079897;28;45316;-61
2023/11/06 03:04:15;;;;;;;;;3.00;1.00;;;;;10.93;71.69;99571.81;5078120;28;45495;-62
2023/11/06 03:06:41;;;;;;;;;1.75;1.00;;;;;10.90;71.10;99571.94;5079635;28;68593;-61
2023/11/06 03:09:09;;;;;;;;;1.25;0.00;;;;;10.90;71.40;99574.56;5080261;28;45386;-62
2023/11/06 03:11:34;;;;;;;;;3.50;1.00;;;;;10.90;72.01;99574.56;5075198;28;45304;-61
2023/11/06 03:14:00;;;;;;;;;6.00;1.75;;;;;10.89;71.93;99581.56;5078994;28;45616;-61
2023/11/06 03:16:26;;;;;;;;;6.50;1.25;;;;;10.89;72.22;99581.56;5077731;28;59063;-62
2023/11/06 03:18:52;;;;;;;;;2.00;1.00;;;;;10.91;71.74;99571.88;5074202;28;45212;-62
2023/11/06 03:21:17;;;;;;;;;6.50;1.75;;;;;10.94;71.86;99583.94;5069433;28;69159;-61
2023/11/06 03:23:42;;;;;;;;;1.00;1.00;;;;;10.94;71.71;99587.44;5079478;28;60166;-62
2023/11/06 03:26:08;;;;;;;;;1.25;1.00;;;;;10.97;71.59;99584.66;5077775;28;71998;-62
2023/11/06 03:28:34;;;;;;;;;1.50;1.00;;;;;10.97;71.71;99592.50;5073991;28;45906;-62
2023/11/06 03:30:59;;;;;;;;;2.50;1.00;;;;;10.99;71.58;99590.66;5079872;28;45519;-61
2023/11/06 03:33:25;;;;;;;;;1.00;1.00;;;;;11.00;71.87;99597.59;5078415;28;45383;-61
2023/11/06 03:35:50;;;;;;;;;3.75;1.25;;;;;11.00;71.61;99589.75;5070908;28;46127;-61
2023/11/06 03:38:15;;;;;;;;;2.75;1.00;;;;;11.00;71.66;99592.38;5077593;28;56497;-61
2023/11/06 03:40:42;;;;;;;;;2.25;1.00;;;;;11.00;71.70;99592.38;5074106;28;69283;-62
2023/11/06 03:43:07;;;;;;;;;3.25;1.75;;;;;11.00;71.93;99591.53;5059873;28;45517;-61
2023/11/06 03:45:32;;;;;;;;;6.00;1.00;;;;;11.00;71.59;99588.91;5076859;28;46066;-61
2023/11/06 03:47:58;;;;;;;;;0.50;0.50;;;;;10.99;71.91;99593.28;5056754;28;58219;-62
2023/11/06 03:50:23;;;;;;;;;2.00;2.00;;;;;10.99;71.77;99593.28;5078022;28;45367;-61
2023/11/06 03:52:49;;;;;;;;;6.00;2.00;;;;;11.00;71.85;99586.28;5076844;28;45499;-61
2023/11/06 03:55:14;;;;;;;;;4.00;1.00;;;;;10.99;71.98;99584.59;5077339;28;47101;-62
2023/11/06 03:57:40;;;;;;;;;4.00;1.00;;;;;10.96;71.82;99585.59;5074270;28;46679;-62
2023/11/06 04:00:09;;;;;;;;;3.75;2.00;;;;;10.98;71.73;99586.38;5073348;28;69437;-63
2023/11/06 04:02:35;;;;;;;;;2.00;1.00;;;;;10.99;71.67;99592.44;5066420;28;45526;-62
2023/11/06 04:05:00;;;;;;;;;1.75;1.00;;;;;10.97;71.28;99587.28;5076961;28;66792;-62
2023/11/06 04:07:25;;;;;;;;;2.00;1.50;;;;;10.98;71.94;99586.38;5079217;28;71316;-62
2023/11/06 04:09:51;;;;;;;;;2.75;1.00;;;;;11.00;71.37;99591.53;5050450;28;69202;-62
2023/11/06 04:12:16;;;;;;;;;6.50;3.25;;;;;10.98;71.54;99594.22;5065946;28;54756;-62
2023/11/06 04:14:41;;;;;;;;;3.50;1.25;;;;;10.98;71.83;99603.84;5061377;28;74381;-62
2023/11/06 04:17:08;;;;;;;;;3.25;0.50;;;;;10.96;71.67;99592.56;5078580;28;73062;-61
2023/11/06 04:19:33;;;;;;;;;4.00;1.00;;;;;10.93;71.76;99592.75;5080072;28;45364;-62
2023/11/06 04:21:58;;;;;;;;;3.00;1.00;;;;;10.94;71.84;99602.28;5079717;28;64846;-62
2023/11/06 04:24:23;;;;;;;;;2.00;1.50;;;;;10.93;71.49;99603.22;5059700;28;75579;-62
2023/11/06 04:26:49;;;;;;;;;2.00;2.00;;;;;10.93;71.73;99611.06;5059065;28;71305;-62
2023/11/06 04:29:14;;;;;;;;;1.00;1.00;;;;;10.94;71.46;99604.88;5060194;28;45356;-62
2023/11/06 04:31:40;;;;;;;;;5.50;1.00;;;;;10.93;72.55;99597.97;5063605;28;73169;-61
2023/11/06 04:34:05;;;;;;;;;2.75;1.00;;;;;10.94;71.81;99608.38;5060186;28;46117;-62
2023/11/06 04:36:31;;;;;;;;;3.75;1.50;;;;;10.96;71.93;99618.75;5075603;28;50561;-62
2023/11/06 04:38:56;;;;;;;;;3.00;1.00;;;;;10.98;71.97;99622.16;5068882;28;68666;-62
2023/11/06 04:41:22;;;;;;;;;6.25;1.25;;;;;11.01;71.94;99624.63;5059749;28;45683;-62
2023/11/06 04:43:47;;;;;;;;;2.00;1.00;;;;;11.06;71.67;99640.13;5058424;28;75495;-62
2023/11/06 04:46:12;;;;;;;;;3.75;1.75;;;;;11.07;71.81;99637.44;5060038;28;45236;-62
2023/11/06 04:48:38;;;;;;;;;2.00;2.00;;;;;11.07;71.72;99639.22;5065060;28;69032;-62
2023/11/06 04:51:03;;;;;;;;;4.50;2.00;;;;;11.08;71.55;99640.91;5079565;28;64152;-62
2023/11/06 04:53:29;;;;;;;;;1.25;1.00;;;;;11.15;71.75;99643.16;5079283;28;46207;-62
2023/11/06 04:55:54;;;;;;;;;3.00;1.00;;;;;11.17;71.70;99630.00;5060303;28;68247;-62
2023/11/06 04:58:20;;;;;;;;;2.00;2.00;;;;;11.21;71.77;99639.41;5053136;28;67624;-62
2023/11/06 05:00:46;;;;;;;;;7.50;2.00;;;;;11.24;71.98;99638.41;5075752;28;45505;-62
2023/11/06 05:03:11;;;;;;;;;2.00;1.00;;;;;11.25;72.27;99640.97;5078394;28;46144;-61
2023/11/06 05:05:37;;;;;;;;;5.50;2.00;;;;;11.26;72.24;99636.56;5058866;28;69812;-62
2023/11/06 05:08:03;;;;;;;;;1.25;1.00;;;;;11.26;72.23;99626.97;5061893;28;45634;-62
2023/11/06 05:10:29;;;;;;;;;1.75;1.75;;;;;11.29;72.12;99629.41;5073243;28;45417;-62
2023/11/06 05:12:54;;;;;;;;;4.00;1.00;;;;;11.31;71.92;99632.78;5060706;28;46193;-61
2023/11/06 05:15:19;;;;;;;;;4.25;2.00;;;;;11.33;72.33;99635.34;5058591;28;71992;-62
2023/11/06 05:17:45;;;;;;;;;1.00;1.00;;;;;11.35;71.89;99639.59;5059464;28;45384;-62
2023/11/06 05:20:10;;;;;;;;;3.75;1.75;;;;;11.38;71.78;99639.47;5042928;28;68008;-61
2023/11/06 05:22:39;;;;;;;;;1.50;1.25;;;;;11.38;72.15;99642.09;5076976;28;46230;-62
2023/11/06 05:25:05;;;;;;;;;4.00;1.00;;;;;11.42;71.53;99641.91;5081456;28;45764;-62
2023/11/06 05:27:30;;;;;;;;;2.25;1.75;;;;;11.44;71.86;99640.06;5064926;28;45267;-62
2023/11/06 05:29:55;;;;;;;;;4.00;1.00;;;;;11.45;71.61;99642.63;5082594;28;69345;-62
2023/11/06 05:32:20;;;;;;;;;4.00;1.00;;;;;11.47;72.12;99639.94;5081807;28;75689;-63
2023/11/06 05:34:46;;;;;;;;;3.00;1.00;;;;;11.49;72.12;99638.06;5066762;28;68189;-63
2023/11/06 05:37:11;;;;;;;;;1.00;0.75;;;;;11.50;71.68;99640.63;5050795;28;64135;-61
2023/11/06 05:39:39;;;;;;;;;1.50;1.25;;;;;11.52;71.96;99638.78;5068310;28;72137;-61
2023/11/06 05:42:07;;;;;;;;;5.25;1.00;;;;;11.54;71.70;99636.97;5081983;28;45453;-61
2023/11/06 05:44:33;;;;;;;;;2.00;1.00;;;;;11.57;71.86;99639.41;5082707;28;48054;-61
2023/11/06 05:46:58;;;;;;;;;1.00;0.75;;;;;11.61;71.91;99645.34;5082831;28;45309;-61
2023/11/06 05:49:23;;;;;;;;;5.00;1.75;;;;;11.63;72.08;99646.13;5081097;28;45671;-62
2023/11/06 05:51:49;;;;;;;;;1.75;1.00;;;;;11.65;71.75;99651.28;5082369;28;52559;-61
2023/11/06 05:54:15;;;;;;;;;4.75;3.25;;;;;11.66;71.78;99647.75;5082918;28;45178;-61
2023/11/06 05:56:40;;;;;;;;;1.25;0.00;;;;;11.68;71.44;99651.97;5082719;28;45437;-61
2023/11/06 05:59:06;;;;;;;;;5.00;0.00;;;;;11.71;71.72;99654.47;5081806;28;72165;-61
2023/11/06 06:01:31;;;;;;;;;3.00;1.00;;;;;11.73;71.66;99649.97;5060992;28;46110;-62
2023/11/06 06:03:57;;;;;;;;;5.50;1.50;;;;;11.74;71.41;99646.44;5081965;28;58712;-61
2023/11/06 06:06:23;;;;;;;;;3.00;0.00;;;;;11.75;71.20;99642.06;5082672;28;45407;-62
2023/11/06 06:08:48;;;;;;;;;2.00;1.00;;;;;11.74;71.07;99643.00;5080920;28;45550;-62
2023/11/06 06:11:13;;;;;;;;;2.00;1.00;;;;;11.71;71.37;99646.59;5061056;28;71017;-62
2023/11/06 06:13:39;;;;;;;;;1.50;1.00;;;;;11.73;71.27;99665.72;5066188;28;45529;-62
2023/11/06 06:16:04;;;;;;;;;5.25;1.25;;;;;11.74;71.34;99667.41;5081646;28;45269;-62
2023/11/06 06:18:30;;;;;;;;;7.00;1.00;;;;;11.75;71.25;99663.84;5082267;28;45426;-63
2023/11/06 06:20:56;;;;;;;;;4.50;0.75;;;;;11.73;70.97;99664.88;5075417;28;45491;-63
2023/11/06 06:23:21;;;;;;;;;1.25;0.25;;;;;11.72;71.05;99666.66;5050027;28;45462;-63
2023/11/06 06:25:46;;;;;;;;;1.75;0.00;;;;;11.70;70.84;99662.41;5055491;28;68725;-63
2023/11/06 06:28:12;;;;;;;;;4.50;0.50;;;;;11.68;70.86;99666.88;5076188;28;46008;-63
2023/11/06 06:30:37;;;;;;;;;4.50;0.75;;;;;11.65;70.85;99662.63;5075101;28;69196;-62
2023/11/06 06:33:02;;;;;;;;;16.75;12.50;;;;;11.64;71.04;99666.16;5079879;28;69905;-62
2023/11/06 06:35:28;;;;;;;;;19.00;13.25;;;;;11.63;71.02;99668.84;5081610;28;46784;-62
2023/11/06 06:37:53;;;;;;;;;18.25;13.00;;;;;11.62;71.08;99672.41;5049096;28;45402;-62
2023/11/06 06:40:20;;;;;;;;;6.00;4.00;;;;;11.58;71.03;99677.81;5062355;28;46281;-63
2023/11/06 06:42:45;;;;;;;;;1.25;1.00;;;;;11.58;70.66;99679.59;5080315;28;45295;-64
2023/11/06 06:45:10;;;;;;;;;1.25;1.00;;;;;11.53;70.66;99669.31;5079523;28;53689;-63
2023/11/06 06:47:36;;;;;;;;;2.75;0.00;;;;;11.53;70.69;99679.78;5078227;28;72894;-61
2023/11/06 06:50:03;;;;;;;;;4.00;1.75;;;;;11.48;70.77;99678.31;5080892;28;68610;-62
2023/11/06 06:52:28;;;;;;;;;1.50;0.00;;;;;11.44;70.64;99681.97;5050480;28;45356;-63
2023/11/06 06:54:54;;;;;;;;;2.75;1.00;;;;;11.40;70.42;99687.38;5081286;28;69392;-63
2023/11/06 06:57:19;;;;;;;;;1.75;1.00;;;;;11.39;71.04;99695.31;5048420;28;65021;-62
2023/11/06 06:59:45;;;;;;;;;2.25;1.00;;;;;11.36;70.71;99693.66;5079765;28;46820;-62
2023/11/06 07:02:10;;;;;;;;;1.00;0.00;;;;;11.34;70.35;99698.13;5057197;28;64555;-63
2023/11/06 07:04:40;;;;;;;;;3.75;0.50;;;;;11.35;70.79;99702.47;5081939;28;45311;-62
2023/11/06 07:07:06;;;;;;;;;1.00;1.00;;;;;11.34;70.87;99699.91;5074016;28;45461;-62
2023/11/06 07:09:31;;;;;;;;;4.25;1.00;;;;;11.33;70.65;99701.69;5066655;28;45267;-62
2023/11/06 07:11:57;;;;;;;;;1.75;1.00;;;;;11.33;70.51;99709.56;5074697;28;45434;-61
2023/11/06 07:14:24;;;;;;;;;2.25;1.00;;;;;11.33;70.67;99703.44;5079369;28;45337;-61
2023/11/06 07:16:49;;;;;;;;;2.00;2.00;;;;;11.34;70.59;99705.16;5073676;28;45532;-66
2023/11/06 07:19:14;;;;;;;;;2.50;1.00;;;;;11.37;70.41;99711.09;5073252;28;47779;-63
2023/11/06 07:21:40;;;;;;;;;3.00;1.50;;;;;11.40;70.46;99712.72;5073841;28;53964;-65
2023/11/06 07:24:05;;;;;;;;;4.25;1.25;;;;;11.42;70.83;99712.66;5061321;28;45786;-65
2023/11/06 07:26:31;;;;;;;;;3.00;2.00;;;;;11.48;70.73;99715.84;5026074;28;47301;-62
2023/11/06 07:28:56;;;;;;;;;2.25;1.00;;;;;11.49;70.53;99714.94;5060995;28;45539;-63
2023/11/06 07:31:23;;;;;;;;;2.25;2.00;;;;;11.51;70.62;99718.31;5060007;28;72984;-62
2023/11/06 07:33:49;;;;;;;;;2.00;1.00;;;;;11.55;70.44;99724.25;5060779;28;45291;-62
2023/11/06 07:36:14;;;;;;;;;4.75;3.25;;;;;11.56;70.25;99725.94;5068098;28;45418;-62
2023/11/06 07:38:39;;;;;;;;;1.75;1.50;;;;;11.58;69.98;99729.38;5080097;28;71254;-61
2023/11/06 07:41:10;;;;;;;;;1.75;0.50;;;;;11.61;70.17;99720.50;5060918;28;45217;-62
2023/11/06 07:43:35;;;;;;;;;1.50;1.00;;;;;11.64;69.84;99725.59;5069955;28;45363;-62
2023/11/06 07:46:00;;;;;;;;;1.00;1.00;;;;;11.68;69.84;99732.38;5059486;28;73825;-63
2023/11/06 07:48:27;;;;;;;;;2.25;1.00;;;;;11.66;69.32;99739.47;5064717;28;46493;-62
2023/11/06 07:50:54;;;;;;;;;0.00;0.00;;;;;11.67;69.63;99743.78;5078307;28;45681;-63
2023/11/06 07:53:19;;;;;;;;;2.50;1.25;;;;;11.72;69.73;99742.66;5044187;28;45212;-63
2023/11/06 07:55:45;;;;;;;;;0.00;0.00;;;;;11.74;69.40;99747.84;5075811;28;45309;-63
2023/11/06 07:58:10;;;;;;;;;2.00;1.00;;;;;11.77;69.52;99758.16;5060097;28;75642;-62
2023/11/06 08:00:37;;;;;;;;;1.00;1.00;;;;;11.79;68.59;99758.91;5078133;28;45476;-62
2023/11/06 08:03:02;;;;;;;;;0.00;0.00;;;;;11.85;68.82;99770.91;5078963;28;45399;-62
2023/11/06 08:05:28;;;;;;;;;1.00;1.00;;;;;11.88;68.89;99775.97;5064828;28;71984;-62
2023/11/06 08:07:54;;;;;;;;;61.00;41.00;;;;;11.90;69.23;99785.53;5077862;28;46540;-62
2023/11/06 08:10:19;;;;;;;;;10.75;9.50;;;;;11.92;68.28;99783.69;5059817;28;45476;-62
2023/11/06 08:12:44;;;;;;;;;0.75;0.75;;;;;11.94;68.74;99786.22;5080174;28;45420;-62
2023/11/06 08:15:10;;;;;;;;;7.75;7.00;;;;;12.01;68.79;99797.28;5062047;28;56948;-62
2023/11/06 08:17:35;;;;;;;;;7.75;6.50;;;;;12.03;68.51;99793.66;5079655;28;46178;-62
2023/11/06 08:20:01;;;;;;;;;3.00;3.00;;;;;12.03;68.39;99788.41;5065499;28;45466;-62
2023/11/06 08:22:27;;;;;;;;;1.00;1.00;;;;;12.04;68.22;99786.63;5060031;28;45321;-62
2023/11/06 08:24:52;;;;;;;;;3.75;3.00;;;;;12.01;68.32;99792.88;5075396;28;45296;-62
2023/11/06 08:27:18;;;;;;;;;1.00;1.00;;;;;12.02;67.94;99798.97;5053620;28;46000;-62
2023/11/06 08:29:43;;;;;;;;;4.00;1.00;;;;;11.99;67.94;99796.47;5060125;28;45482;-61
2023/11/06 08:32:10;;;;;;;;;2.00;1.50;;;;;11.95;67.60;99798.41;5049102;28;67090;-62
2023/11/06 08:34:39;;;;;;;;;1.00;0.00;;;;;11.97;67.67;99817.56;5079285;28;45228;-61
2023/11/06 08:37:04;;;;;;;;;1.25;1.25;;;;;11.94;67.63;99812.44;5060110;28;47540;-62
2023/11/06 08:39:30;;;;;;;;;0.25;0.25;;;;;11.90;67.79;99811.75;5041003;28;72490;-62
2023/11/06 08:41:55;;;;;;;;;2.00;0.00;;;;;11.87;67.13;99811.00;5041964;28;45491;-62
2023/11/06 08:44:20;;;;;;;;;3.25;1.00;;;;;11.85;67.24;99808.44;5059235;28;60094;-61
2023/11/06 08:46:46;;;;;;;;;1.00;0.75;;;;;11.82;67.75;99802.50;5059076;28;64884;-62
2023/11/06 08:49:13;;;;;;;;;2.00;0.00;;;;;11.79;67.72;99808.72;5059802;28;45313;-62
2023/11/06 08:51:39;;;;;;;;;3.00;0.00;;;;;11.82;67.97;99803.34;5059253;28;45287;-62
2023/11/06 08:54:05;;;;;;;;;3.00;0.00;;;;;11.84;67.46;99813.75;5042043;28;45309;-63
2023/11/06 08:56:31;;;;;;;;;1.00;0.00;;;;;11.88;67.46;99810.94;5063239;28;49296;-61
2023/11/06 08:58:56;;;;;;;;;1.00;1.00;;;;;11.91;67.13;99820.44;5063524;28;45175;-63
2023/11/06 09:01:22;;;;;;;;;1.00;0.00;;;;;11.91;67.04;99829.16;5076692;28;45360;-60
2023/11/06 09:03:48;;;;;;;;;4.00;0.75;;;;;11.93;66.87;99819.47;5082440;28;73264;-62
2023/11/06 09:06:13;;;;;;;;;0.00;0.00;;;;;11.99;66.83;99830.56;5083568;28;46231;-62
2023/11/06 09:08:38;;;;;;;;;1.25;0.00;;;;;12.01;66.09;99826.13;5082434;28;72520;-61
2023/11/06 09:11:05;;;;;;;;;1.75;0.00;;;;;12.02;66.62;99825.19;5063490;28;45277;-61
2023/11/06 09:13:35;;;;;;;;;0.00;0.00;;;;;12.04;66.66;99824.19;5062265;28;45312;-61
2023/11/06 09:16:01;;;;;;;;;3.00;1.00;;;;;12.08;66.96;99833.63;5062076;28;45284;-61
2023/11/06 09:18:26;;;;;;;;;1.75;0.00;;;;;12.14;66.46;99835.94;5069672;28;45371;-61
2023/11/06 09:20:54;;;;;;;;;2.50;0.00;;;;;12.18;66.23;99836.63;5083284;28;53503;-61
2023/11/06 09:23:21;;;;;;;;;0.25;0.25;;;;;12.20;65.73;99837.44;5083585;28;45510;-61
2023/11/06 09:25:46;;;;;;;;;2.00;0.00;;;;;12.23;66.20;99841.66;5082726;28;46189;-61
2023/11/06 09:28:12;;;;;;;;;0.50;0.00;;;;;12.25;65.67;99831.94;5064758;28;45360;-61
2023/11/06 09:30:37;;;;;;;;;2.00;2.00;;;;;12.28;66.10;99844.91;5083580;28;45194;-61
2023/11/06 09:33:03;;;;;;;;;0.00;0.00;;;;;12.30;65.52;99846.53;5082135;28;73082;-62
2023/11/06 09:35:29;;;;;;;;;0.75;0.00;;;;;12.35;65.72;99851.56;5063970;28;74363;-61
2023/11/06 09:37:54;;;;;;;;;1.00;0.00;;;;;12.42;65.66;99850.34;5082515;28;45252;-61
2023/11/06 09:40:21;;;;;;;;;2.50;2.00;;;;;12.46;65.88;99857.13;5082345;28;69444;-61
2023/11/06 09:42:47;;;;;;;;;3.50;1.25;;;;;12.54;65.30;99855.00;5082085;28;45280;-62
2023/11/06 09:45:12;;;;;;;;;2.75;1.00;;;;;12.60;65.61;99868.75;5063938;28;46791;-62
2023/11/06 09:47:52;;;;;;;;;2.75;1.00;;;;;12.68;65.47;99870.06;5082150;28;60459;-62
2023/11/06 09:50:21;;;;;;;;;1.00;1.00;;;;;12.78;65.63;99877.47;5083017;28;45230;-63
2023/11/06 09:52:53;;;;;;;;;2.00;0.75;;;;;12.86;64.96;99870.91;5064718;28;45435;-61
2023/11/06 09:55:19;;;;;;;;;3.50;1.00;;;;;12.94;65.16;99872.31;5082834;28;46208;-63
2023/11/06 09:57:48;;;;;;;;;2.00;2.00;;;;;13.00;63.64;99872.84;5064748;28;45277;-61
2023/11/06 10:00:16;;;;;;;;;1.00;1.00;;;;;13.03;64.19;99877.06;5070490;28;45375;-61
2023/11/06 10:02:43;;;;;;;;;1.00;1.00;;;;;13.06;64.30;99884.81;5071342;28;45306;-61
2023/11/06 10:05:13;;;;;;;;;4.00;0.00;;;;;13.09;63.53;99888.13;5066398;28;45406;-62
2023/11/06 10:07:40;;;;;;;;;2.00;1.50;;;;;13.20;64.07;99894.63;5082621;28;45893;-62
2023/11/06 10:10:12;;;;;;;;;1.50;0.00;;;;;13.31;64.06;99889.69;5075946;28;45419;-62
2023/11/06 10:12:37;;;;;;;;;1.50;1.00;;;;;13.40;63.11;99905.00;5069777;28;45471;-62
2023/11/06 10:15:06;;;;;;;;;1.00;0.00;;;;;13.53;61.93;99901.69;5061124;28;72424;-62
2023/11/06 10:17:33;;;;;;;;;0.25;0.25;;;;;13.61;62.42;99902.97;5062098;28;45455;-62
2023/11/06 10:20:00;;;;;;;;;4.00;1.00;;;;;13.68;62.94;99904.34;5062360;28;45261;-62
2023/11/06 10:22:26;;;;;;;;;2.00;0.00;;;;;13.78;62.25;99901.25;5061364;28;45238;-61
2023/11/06 10:24:53;;;;;;;;;1.50;1.00;;;;;13.79;60.65;99900.31;5062000;28;45383;-63
2023/11/06 10:27:29;;;;;;;;;4.75;1.00;;;;;13.78;62.29;99898.63;5075092;28;45282;-62
2023/11/06 10:30:05;;;;;;;;;3.00;1.00;;;;;13.79;62.14;99906.44;5074945;28;45328;-62
2023/11/06 10:32:30;;;;;;;;;1.25;1.00;;;;;13.85;62.10;99906.09;5061716;28;45494;-62
2023/11/06 10:35:17;;;;;;;;;1.00;0.00;;;;;13.88;60.32;99906.84;5061989;28;45876;-62
2023/11/06 10:37:45;;;;;;;;;1.00;1.00;;;;;13.85;61.05;99907.88;5061332;28;45553;-62
2023/11/06 10:40:14;;;;;;;;;4.50;1.00;;;;;13.97;60.55;99909.84;5062070;28;45244;-62
2023/11/06 10:42:42;;;;;;;;;3.50;1.00;;;;;14.36;62.06;99898.06;5043944;28;45320;-62
2023/11/06 10:45:11;;;;;;;;;5.00;0.00;;;;;14.93;59.67;99905.38;5061749;28;46494;-62
2023/11/06 10:47:38;;;;;;;;;1.00;0.75;;;;;15.27;60.05;99916.53;5068386;28;45534;-62
2023/11/06 10:50:12;;;;;;;;;2.75;1.00;;;;;15.56;59.61;99906.88;5063960;28;45408;-62
2023/11/06 10:52:39;;;;;;;;;2.50;1.00;;;;;15.56;57.39;99909.53;5082284;28;45359;-62
2023/11/06 10:55:06;;;;;;;;;2.00;0.25;;;;;15.38;57.56;99911.47;5063853;28;46065;-62
2023/11/06 10:57:35;;;;;;;;;5.75;0.00;;;;;15.23;56.43;99917.69;5081786;28;45284;-62
2023/11/06 11:00:07;;;;;;;;;2.25;0.25;;;;;15.15;58.10;99923.38;5064046;28;45349;-62
2023/11/06 11:02:45;;;;;;;;;3.00;0.00;;;;;15.02;58.09;99921.59;5081439;28;45382;-62
2023/11/06 11:05:12;;;;;;;;;2.00;0.75;;;;;14.89;58.81;99909.13;5081691;28;45227;-63
2023/11/06 11:07:48;;;;;;;;;3.25;3.00;;;;;14.79;58.63;99916.69;5080691;28;45318;-62
2023/11/06 11:10:17;;;;;;;;;6.50;4.50;;;;;14.69;59.17;99909.41;5068683;28;45419;-62
2023/11/06 11:12:43;;;;;;;;;2.00;1.25;;;;;14.59;59.18;99909.94;5061234;28;45186;-62
2023/11/06 11:15:09;;;;;;;;;2.00;2.00;;;;;14.46;58.59;99902.78;5061042;28;45235;-62
2023/11/06 11:17:35;;;;;;;;;5.00;2.00;;;;;14.33;58.92;99902.66;5059379;28;45249;-62
2023/11/06 11:20:09;;;;;;;;;4.00;3.00;;;;;14.22;58.29;99903.25;5061169;28;45293;-62
2023/11/06 11:23:10;;;;;;;;;4.50;3.00;;;;;14.09;57.96;99903.06;5061101;28;45221;-62
2023/11/06 11:25:58;;;;;;;;;4.25;1.75;;;;;14.01;58.75;99907.91;5060832;28;46515;-62
2023/11/06 11:28:25;;;;;;;;;6.50;4.00;;;;;14.00;59.22;99904.41;5061143;28;45750;-62
2023/11/06 11:30:51;;;;;;;;;4.50;1.00;;;;;13.96;59.07;99913.41;5061090;28;45284;-62